Sicamous, Canada
Current Conditions -  °F | °C
As of 2:05 AM on Saturday 25 Oct 2014 (Local Time) from CYRV Reporting Station
Haze Haze  
Wind Chill: 39°   Ceiling: 200
Heat Index: 39°   Visibility: 2mi
Dew Point: 39°   Wind: 0mph
Humidity: 100%   Direction: NA
Pressure: 30.03"   Gusts: NA
Location:  50.83°N, 119°W
Report Text: CYRV 250905Z AUTO 00000KT 2SM BR BKN002 OVC150 04/04 A3003 RMK SLP178
Loading
Personal Weather Stations






























Interactive Weather Map
Tropical Storm Tracking
New forecast layout! Learn more

10-Day Weather Forecast

Advertisements
Track Severe Weather on mobile